sensor_id;sensor_type;location;lat;lon;timestamp;P1;durP1;ratioP1;P2;durP2;ratioP2
23561;SDS011;11959;49.418;8.728;2023-09-19T00:00:45;2.80;;;1.27;;
23561;SDS011;11959;49.418;8.728;2023-09-19T00:03:12;3.08;;;1.50;;
23561;SDS011;11959;49.418;8.728;2023-09-19T00:05:38;1.85;;;1.30;;
23561;SDS011;11959;49.418;8.728;2023-09-19T00:08:04;3.70;;;1.30;;
23561;SDS011;11959;49.418;8.728;2023-09-19T00:10:31;2.20;;;1.25;;
23561;SDS011;11959;49.418;8.728;2023-09-19T00:13:01;2.70;;;1.05;;
23561;SDS011;11959;49.418;8.728;2023-09-19T00:15:38;2.92;;;1.00;;
23561;SDS011;11959;49.418;8.728;2023-09-19T00:18:15;1.52;;;0.80;;
23561;SDS011;11959;49.418;8.728;2023-09-19T00:20:43;2.42;;;1.23;;
23561;SDS011;11959;49.418;8.728;2023-09-19T00:23:12;1.73;;;0.70;;
23561;SDS011;11959;49.418;8.728;2023-09-19T00:25:38;2.92;;;1.30;;
23561;SDS011;11959;49.418;8.728;2023-09-19T00:28:05;2.45;;;1.20;;
23561;SDS011;11959;49.418;8.728;2023-09-19T00:30:32;3.00;;;1.00;;
23561;SDS011;11959;49.418;8.728;2023-09-19T00:32:58;2.80;;;1.00;;
23561;SDS011;11959;49.418;8.728;2023-09-19T00:35:25;1.63;;;1.20;;
23561;SDS011;11959;49.418;8.728;2023-09-19T00:37:52;2.40;;;1.10;;
23561;SDS011;11959;49.418;8.728;2023-09-19T00:40:18;2.67;;;1.20;;
23561;SDS011;11959;49.418;8.728;2023-09-19T00:42:45;2.08;;;1.02;;
23561;SDS011;11959;49.418;8.728;2023-09-19T00:45:12;3.92;;;1.30;;
23561;SDS011;11959;49.418;8.728;2023-09-19T00:47:39;5.25;;;1.20;;
23561;SDS011;11959;49.418;8.728;2023-09-19T00:50:09;2.03;;;1.00;;
23561;SDS011;11959;49.418;8.728;2023-09-19T00:52:36;2.65;;;1.10;;
23561;SDS011;11959;49.418;8.728;2023-09-19T00:55:06;3.58;;;1.15;;
23561;SDS011;11959;49.418;8.728;2023-09-19T00:57:33;4.32;;;1.38;;
23561;SDS011;11959;49.418;8.728;2023-09-19T01:00:00;3.92;;;1.23;;
23561;SDS011;11959;49.418;8.728;2023-09-19T01:02:31;3.65;;;1.45;;
23561;SDS011;11959;49.418;8.728;2023-09-19T01:04:57;2.55;;;1.05;;
23561;SDS011;11959;49.418;8.728;2023-09-19T01:07:24;2.75;;;1.20;;
23561;SDS011;11959;49.418;8.728;2023-09-19T01:09:50;2.17;;;1.20;;
23561;SDS011;11959;49.418;8.728;2023-09-19T01:12:17;2.47;;;1.08;;
23561;SDS011;11959;49.418;8.728;2023-09-19T01:14:56;2.33;;;1.13;;
23561;SDS011;11959;49.418;8.728;2023-09-19T01:17:30;5.10;;;1.55;;
23561;SDS011;11959;49.418;8.728;2023-09-19T01:20:31;2.58;;;1.30;;
23561;SDS011;11959;49.418;8.728;2023-09-19T01:23:12;5.38;;;1.30;;
23561;SDS011;11959;49.418;8.728;2023-09-19T01:28:30;1.85;;;1.08;;
23561;SDS011;11959;49.418;8.728;2023-09-19T01:31:19;4.78;;;1.35;;
23561;SDS011;11959;49.418;8.728;2023-09-19T01:33:55;3.20;;;1.17;;
23561;SDS011;11959;49.418;8.728;2023-09-19T01:36:22;2.85;;;1.33;;
23561;SDS011;11959;49.418;8.728;2023-09-19T01:38:49;2.72;;;1.23;;
23561;SDS011;11959;49.418;8.728;2023-09-19T01:41:17;2.63;;;1.10;;
23561;SDS011;11959;49.418;8.728;2023-09-19T01:43:55;2.90;;;1.35;;
23561;SDS011;11959;49.418;8.728;2023-09-19T01:46:24;4.30;;;1.20;;
23561;SDS011;11959;49.418;8.728;2023-09-19T01:49:04;3.85;;;1.55;;
23561;SDS011;11959;49.418;8.728;2023-09-19T01:52:11;2.90;;;1.30;;
23561;SDS011;11959;49.418;8.728;2023-09-19T01:54:52;3.00;;;1.13;;
23561;SDS011;11959;49.418;8.728;2023-09-19T01:57:35;2.35;;;1.20;;
23561;SDS011;11959;49.418;8.728;2023-09-19T02:00:09;5.28;;;1.20;;
23561;SDS011;11959;49.418;8.728;2023-09-19T02:02:46;4.10;;;1.23;;
23561;SDS011;11959;49.418;8.728;2023-09-19T02:05:13;1.55;;;1.20;;
23561;SDS011;11959;49.418;8.728;2023-09-19T02:07:49;2.97;;;1.15;;
23561;SDS011;11959;49.418;8.728;2023-09-19T02:10:15;2.40;;;1.10;;
23561;SDS011;11959;49.418;8.728;2023-09-19T02:12:41;3.15;;;1.70;;
23561;SDS011;11959;49.418;8.728;2023-09-19T02:15:07;4.05;;;1.33;;
23561;SDS011;11959;49.418;8.728;2023-09-19T02:17:34;4.80;;;1.50;;
23561;SDS011;11959;49.418;8.728;2023-09-19T02:20:00;1.83;;;1.02;;
23561;SDS011;11959;49.418;8.728;2023-09-19T02:22:26;3.35;;;1.42;;
23561;SDS011;11959;49.418;8.728;2023-09-19T02:24:53;2.35;;;1.48;;
23561;SDS011;11959;49.418;8.728;2023-09-19T02:27:19;2.22;;;1.23;;
23561;SDS011;11959;49.418;8.728;2023-09-19T02:29:44;2.70;;;1.30;;
23561;SDS011;11959;49.418;8.728;2023-09-19T02:32:10;2.42;;;1.15;;
23561;SDS011;11959;49.418;8.728;2023-09-19T02:34:36;5.03;;;1.77;;
23561;SDS011;11959;49.418;8.728;2023-09-19T02:37:04;3.88;;;1.58;;
23561;SDS011;11959;49.418;8.728;2023-09-19T02:39:30;4.22;;;1.60;;
23561;SDS011;11959;49.418;8.728;2023-09-19T02:41:57;2.65;;;1.58;;
23561;SDS011;11959;49.418;8.728;2023-09-19T02:44:22;2.58;;;1.42;;
23561;SDS011;11959;49.418;8.728;2023-09-19T02:46:49;2.35;;;1.27;;
23561;SDS011;11959;49.418;8.728;2023-09-19T02:49:15;3.70;;;1.52;;
23561;SDS011;11959;49.418;8.728;2023-09-19T02:51:42;2.20;;;1.60;;
23561;SDS011;11959;49.418;8.728;2023-09-19T02:54:08;3.13;;;1.50;;
23561;SDS011;11959;49.418;8.728;2023-09-19T02:56:34;4.13;;;1.52;;
23561;SDS011;11959;49.418;8.728;2023-09-19T02:59:01;2.58;;;1.20;;
23561;SDS011;11959;49.418;8.728;2023-09-19T03:01:26;3.13;;;1.60;;
23561;SDS011;11959;49.418;8.728;2023-09-19T03:03:53;2.30;;;1.33;;
23561;SDS011;11959;49.418;8.728;2023-09-19T03:06:19;4.35;;;1.50;;
23561;SDS011;11959;49.418;8.728;2023-09-19T03:08:46;3.17;;;1.60;;
23561;SDS011;11959;49.418;8.728;2023-09-19T03:11:14;3.28;;;1.63;;
23561;SDS011;11959;49.418;8.728;2023-09-19T03:13:41;4.93;;;1.67;;
23561;SDS011;11959;49.418;8.728;2023-09-19T03:16:07;3.60;;;1.75;;
23561;SDS011;11959;49.418;8.728;2023-09-19T03:18:34;3.60;;;1.60;;
23561;SDS011;11959;49.418;8.728;2023-09-19T03:20:59;3.95;;;1.40;;
23561;SDS011;11959;49.418;8.728;2023-09-19T03:23:26;6.43;;;1.85;;
23561;SDS011;11959;49.418;8.728;2023-09-19T03:25:52;2.17;;;1.45;;
23561;SDS011;11959;49.418;8.728;2023-09-19T03:28:19;2.10;;;1.60;;
23561;SDS011;11959;49.418;8.728;2023-09-19T03:30:45;4.68;;;1.63;;
23561;SDS011;11959;49.418;8.728;2023-09-19T03:33:11;3.15;;;1.50;;
23561;SDS011;11959;49.418;8.728;2023-09-19T03:35:37;2.03;;;1.60;;
23561;SDS011;11959;49.418;8.728;2023-09-19T03:38:05;3.08;;;1.60;;
23561;SDS011;11959;49.418;8.728;2023-09-19T03:40:30;3.60;;;1.80;;
23561;SDS011;11959;49.418;8.728;2023-09-19T03:42:56;3.05;;;1.63;;
23561;SDS011;11959;49.418;8.728;2023-09-19T03:45:25;2.03;;;1.42;;
23561;SDS011;11959;49.418;8.728;2023-09-19T03:47:50;3.13;;;1.58;;
23561;SDS011;11959;49.418;8.728;2023-09-19T03:50:16;3.28;;;1.63;;
23561;SDS011;11959;49.418;8.728;2023-09-19T03:52:45;3.17;;;1.50;;
23561;SDS011;11959;49.418;8.728;2023-09-19T03:55:11;2.42;;;1.50;;
23561;SDS011;11959;49.418;8.728;2023-09-19T03:57:37;3.78;;;1.70;;
23561;SDS011;11959;49.418;8.728;2023-09-19T04:00:03;2.83;;;1.30;;
23561;SDS011;11959;49.418;8.728;2023-09-19T04:02:38;3.90;;;1.60;;
23561;SDS011;11959;49.418;8.728;2023-09-19T04:05:04;2.85;;;1.67;;
23561;SDS011;11959;49.418;8.728;2023-09-19T04:07:30;4.50;;;2.00;;
23561;SDS011;11959;49.418;8.728;2023-09-19T04:09:56;3.30;;;1.60;;
23561;SDS011;11959;49.418;8.728;2023-09-19T04:12:21;3.60;;;1.60;;
23561;SDS011;11959;49.418;8.728;2023-09-19T04:14:47;2.72;;;1.40;;
23561;SDS011;11959;49.418;8.728;2023-09-19T04:17:14;4.68;;;1.58;;
23561;SDS011;11959;49.418;8.728;2023-09-19T04:19:39;3.95;;;1.83;;
23561;SDS011;11959;49.418;8.728;2023-09-19T04:22:06;4.13;;;1.85;;
23561;SDS011;11959;49.418;8.728;2023-09-19T04:24:32;4.10;;;1.48;;
23561;SDS011;11959;49.418;8.728;2023-09-19T04:26:59;2.45;;;1.30;;
23561;SDS011;11959;49.418;8.728;2023-09-19T04:29:24;5.85;;;1.88;;
23561;SDS011;11959;49.418;8.728;2023-09-19T04:31:51;6.25;;;1.70;;
23561;SDS011;11959;49.418;8.728;2023-09-19T04:34:17;4.57;;;1.48;;
23561;SDS011;11959;49.418;8.728;2023-09-19T04:36:43;3.45;;;1.80;;
23561;SDS011;11959;49.418;8.728;2023-09-19T04:39:09;3.88;;;1.80;;
23561;SDS011;11959;49.418;8.728;2023-09-19T04:41:36;3.90;;;1.60;;
23561;SDS011;11959;49.418;8.728;2023-09-19T04:44:05;3.63;;;1.75;;
23561;SDS011;11959;49.418;8.728;2023-09-19T04:46:32;4.15;;;1.95;;
23561;SDS011;11959;49.418;8.728;2023-09-19T04:49:01;4.45;;;2.00;;
23561;SDS011;11959;49.418;8.728;2023-09-19T04:51:27;3.83;;;1.77;;
23561;SDS011;11959;49.418;8.728;2023-09-19T04:53:57;3.30;;;1.80;;
23561;SDS011;11959;49.418;8.728;2023-09-19T04:56:23;7.63;;;1.98;;
23561;SDS011;11959;49.418;8.728;2023-09-19T04:58:49;3.72;;;1.70;;
23561;SDS011;11959;49.418;8.728;2023-09-19T05:01:15;5.43;;;1.63;;
23561;SDS011;11959;49.418;8.728;2023-09-19T05:03:41;3.00;;;1.80;;
23561;SDS011;11959;49.418;8.728;2023-09-19T05:06:07;4.82;;;2.05;;
23561;SDS011;11959;49.418;8.728;2023-09-19T05:08:32;3.53;;;2.10;;
23561;SDS011;11959;49.418;8.728;2023-09-19T05:10:58;4.07;;;2.00;;
23561;SDS011;11959;49.418;8.728;2023-09-19T05:13:27;3.35;;;1.95;;
23561;SDS011;11959;49.418;8.728;2023-09-19T05:15:53;2.80;;;1.73;;
23561;SDS011;11959;49.418;8.728;2023-09-19T05:18:18;4.15;;;2.10;;
23561;SDS011;11959;49.418;8.728;2023-09-19T05:20:44;5.47;;;2.38;;
23561;SDS011;11959;49.418;8.728;2023-09-19T05:23:10;3.00;;;1.83;;
23561;SDS011;11959;49.418;8.728;2023-09-19T05:25:39;5.68;;;2.40;;
23561;SDS011;11959;49.418;8.728;2023-09-19T05:28:05;3.90;;;1.98;;
23561;SDS011;11959;49.418;8.728;2023-09-19T05:30:32;3.25;;;2.10;;
23561;SDS011;11959;49.418;8.728;2023-09-19T05:32:58;5.90;;;2.38;;
23561;SDS011;11959;49.418;8.728;2023-09-19T05:35:24;5.68;;;2.13;;
23561;SDS011;11959;49.418;8.728;2023-09-19T05:37:51;6.30;;;2.63;;
23561;SDS011;11959;49.418;8.728;2023-09-19T05:40:17;4.32;;;2.38;;
23561;SDS011;11959;49.418;8.728;2023-09-19T05:42:44;5.00;;;2.20;;
23561;SDS011;11959;49.418;8.728;2023-09-19T05:45:10;6.72;;;2.53;;
23561;SDS011;11959;49.418;8.728;2023-09-19T05:47:39;5.57;;;2.92;;
23561;SDS011;11959;49.418;8.728;2023-09-19T05:50:06;4.90;;;2.45;;
23561;SDS011;11959;49.418;8.728;2023-09-19T05:52:33;6.10;;;2.50;;
23561;SDS011;11959;49.418;8.728;2023-09-19T05:55:05;4.30;;;2.67;;
23561;SDS011;11959;49.418;8.728;2023-09-19T05:57:33;4.43;;;2.15;;
23561;SDS011;11959;49.418;8.728;2023-09-19T05:59:59;3.33;;;2.00;;
23561;SDS011;11959;49.418;8.728;2023-09-19T06:02:24;4.72;;;2.47;;
23561;SDS011;11959;49.418;8.728;2023-09-19T06:04:55;4.38;;;2.15;;
23561;SDS011;11959;49.418;8.728;2023-09-19T06:07:23;3.72;;;2.50;;
23561;SDS011;11959;49.418;8.728;2023-09-19T06:09:52;4.25;;;1.98;;
23561;SDS011;11959;49.418;8.728;2023-09-19T06:12:21;4.30;;;2.05;;
23561;SDS011;11959;49.418;8.728;2023-09-19T06:14:46;5.35;;;2.45;;
23561;SDS011;11959;49.418;8.728;2023-09-19T06:17:13;6.18;;;2.10;;
23561;SDS011;11959;49.418;8.728;2023-09-19T06:19:39;5.68;;;2.15;;
23561;SDS011;11959;49.418;8.728;2023-09-19T06:22:06;6.55;;;2.22;;
23561;SDS011;11959;49.418;8.728;2023-09-19T06:24:32;5.35;;;2.17;;
23561;SDS011;11959;49.418;8.728;2023-09-19T06:26:58;4.68;;;1.90;;
23561;SDS011;11959;49.418;8.728;2023-09-19T06:29:26;6.22;;;2.17;;
23561;SDS011;11959;49.418;8.728;2023-09-19T06:31:51;7.28;;;2.55;;
23561;SDS011;11959;49.418;8.728;2023-09-19T06:34:17;5.13;;;2.10;;
23561;SDS011;11959;49.418;8.728;2023-09-19T06:36:43;3.08;;;1.85;;
23561;SDS011;11959;49.418;8.728;2023-09-19T06:39:09;7.95;;;2.10;;
23561;SDS011;11959;49.418;8.728;2023-09-19T06:41:36;7.00;;;2.28;;
23561;SDS011;11959;49.418;8.728;2023-09-19T06:44:04;4.68;;;2.08;;
23561;SDS011;11959;49.418;8.728;2023-09-19T06:46:30;5.13;;;1.90;;
23561;SDS011;11959;49.418;8.728;2023-09-19T06:48:59;3.72;;;1.60;;
23561;SDS011;11959;49.418;8.728;2023-09-19T06:51:28;7.38;;;2.30;;
23561;SDS011;11959;49.418;8.728;2023-09-19T06:53:54;4.93;;;2.03;;
23561;SDS011;11959;49.418;8.728;2023-09-19T06:56:22;5.72;;;2.17;;
23561;SDS011;11959;49.418;8.728;2023-09-19T06:58:49;5.25;;;1.90;;
23561;SDS011;11959;49.418;8.728;2023-09-19T07:01:15;8.15;;;2.25;;
23561;SDS011;11959;49.418;8.728;2023-09-19T07:03:41;4.28;;;2.08;;
23561;SDS011;11959;49.418;8.728;2023-09-19T07:06:06;5.95;;;2.28;;
23561;SDS011;11959;49.418;8.728;2023-09-19T07:08:33;5.38;;;2.38;;
23561;SDS011;11959;49.418;8.728;2023-09-19T07:10:59;4.70;;;2.00;;
23561;SDS011;11959;49.418;8.728;2023-09-19T07:13:25;4.20;;;2.15;;
23561;SDS011;11959;49.418;8.728;2023-09-19T07:15:50;7.55;;;2.03;;
23561;SDS011;11959;49.418;8.728;2023-09-19T07:18:16;4.20;;;2.28;;
23561;SDS011;11959;49.418;8.728;2023-09-19T07:20:46;4.85;;;1.85;;
23561;SDS011;11959;49.418;8.728;2023-09-19T07:23:17;5.10;;;1.98;;
23561;SDS011;11959;49.418;8.728;2023-09-19T07:25:45;5.75;;;2.28;;
23561;SDS011;11959;49.418;8.728;2023-09-19T07:28:11;4.80;;;1.98;;
23561;SDS011;11959;49.418;8.728;2023-09-19T07:30:37;4.80;;;1.98;;
23561;SDS011;11959;49.418;8.728;2023-09-19T07:33:04;3.00;;;1.80;;
23561;SDS011;11959;49.418;8.728;2023-09-19T07:35:30;4.45;;;2.00;;
23561;SDS011;11959;49.418;8.728;2023-09-19T07:37:56;3.40;;;1.90;;
23561;SDS011;11959;49.418;8.728;2023-09-19T07:40:23;4.63;;;1.60;;
23561;SDS011;11959;49.418;8.728;2023-09-19T07:42:52;4.50;;;1.77;;
23561;SDS011;11959;49.418;8.728;2023-09-19T07:45:18;5.68;;;1.98;;
23561;SDS011;11959;49.418;8.728;2023-09-19T07:47:48;7.03;;;2.22;;
23561;SDS011;11959;49.418;8.728;2023-09-19T07:50:16;4.20;;;1.77;;
23561;SDS011;11959;49.418;8.728;2023-09-19T07:52:46;6.32;;;2.05;;
23561;SDS011;11959;49.418;8.728;2023-09-19T07:55:13;5.38;;;1.77;;
23561;SDS011;11959;49.418;8.728;2023-09-19T07:57:45;6.43;;;1.63;;
23561;SDS011;11959;49.418;8.728;2023-09-19T08:00:11;4.60;;;1.55;;
23561;SDS011;11959;49.418;8.728;2023-09-19T08:02:38;4.75;;;1.58;;
23561;SDS011;11959;49.418;8.728;2023-09-19T08:05:05;3.97;;;1.42;;
23561;SDS011;11959;49.418;8.728;2023-09-19T08:07:34;3.42;;;1.45;;
23561;SDS011;11959;49.418;8.728;2023-09-19T08:10:04;5.43;;;1.92;;
23561;SDS011;11959;49.418;8.728;2023-09-19T08:12:38;3.42;;;1.52;;
23561;SDS011;11959;49.418;8.728;2023-09-19T08:15:11;3.85;;;1.45;;
23561;SDS011;11959;49.418;8.728;2023-09-19T08:17:46;3.72;;;1.45;;
23561;SDS011;11959;49.418;8.728;2023-09-19T08:20:12;4.32;;;1.55;;
23561;SDS011;11959;49.418;8.728;2023-09-19T08:22:52;3.50;;;1.50;;
23561;SDS011;11959;49.418;8.728;2023-09-19T08:25:22;5.20;;;1.52;;
23561;SDS011;11959;49.418;8.728;2023-09-19T08:27:48;5.18;;;1.65;;
23561;SDS011;11959;49.418;8.728;2023-09-19T08:30:23;3.17;;;1.33;;
23561;SDS011;11959;49.418;8.728;2023-09-19T08:32:49;3.50;;;1.67;;
23561;SDS011;11959;49.418;8.728;2023-09-19T08:35:15;3.70;;;1.20;;
23561;SDS011;11959;49.418;8.728;2023-09-19T08:37:44;5.53;;;1.48;;
23561;SDS011;11959;49.418;8.728;2023-09-19T08:40:13;3.97;;;1.52;;
23561;SDS011;11959;49.418;8.728;2023-09-19T08:42:48;3.80;;;1.50;;
23561;SDS011;11959;49.418;8.728;2023-09-19T08:45:19;7.60;;;1.60;;
23561;SDS011;11959;49.418;8.728;2023-09-19T08:48:32;4.32;;;1.55;;
23561;SDS011;11959;49.418;8.728;2023-09-19T08:53:42;3.30;;;1.15;;
23561;SDS011;11959;49.418;8.728;2023-09-19T08:56:24;3.22;;;1.17;;
23561;SDS011;11959;49.418;8.728;2023-09-19T08:59:13;4.25;;;1.55;;
23561;SDS011;11959;49.418;8.728;2023-09-19T09:01:38;4.85;;;1.30;;
23561;SDS011;11959;49.418;8.728;2023-09-19T09:04:07;3.28;;;1.30;;
23561;SDS011;11959;49.418;8.728;2023-09-19T09:06:34;2.97;;;1.23;;
23561;SDS011;11959;49.418;8.728;2023-09-19T09:09:01;3.72;;;1.30;;
23561;SDS011;11959;49.418;8.728;2023-09-19T09:11:28;3.72;;;1.50;;
23561;SDS011;11959;49.418;8.728;2023-09-19T09:13:54;3.88;;;1.30;;
23561;SDS011;11959;49.418;8.728;2023-09-19T09:16:19;2.97;;;1.30;;
23561;SDS011;11959;49.418;8.728;2023-09-19T09:18:45;5.15;;;1.27;;
23561;SDS011;11959;49.418;8.728;2023-09-19T09:21:12;4.32;;;1.17;;
23561;SDS011;11959;49.418;8.728;2023-09-19T09:23:39;2.97;;;1.20;;
23561;SDS011;11959;49.418;8.728;2023-09-19T09:26:05;2.90;;;1.10;;
23561;SDS011;11959;49.418;8.728;2023-09-19T09:28:33;6.15;;;1.40;;
23561;SDS011;11959;49.418;8.728;2023-09-19T09:31:00;2.97;;;1.25;;
23561;SDS011;11959;49.418;8.728;2023-09-19T09:33:33;3.20;;;1.27;;
23561;SDS011;11959;49.418;8.728;2023-09-19T09:36:00;5.38;;;1.50;;
23561;SDS011;11959;49.418;8.728;2023-09-19T09:38:28;4.68;;;1.65;;
23561;SDS011;11959;49.418;8.728;2023-09-19T09:41:08;6.25;;;1.63;;
23561;SDS011;11959;49.418;8.728;2023-09-19T09:43:36;4.38;;;1.30;;
23561;SDS011;11959;49.418;8.728;2023-09-19T09:46:13;4.97;;;1.65;;
23561;SDS011;11959;49.418;8.728;2023-09-19T09:51:43;4.35;;;1.33;;
23561;SDS011;11959;49.418;8.728;2023-09-19T09:54:25;4.10;;;1.40;;
23561;SDS011;11959;49.418;8.728;2023-09-19T09:56:58;6.03;;;1.58;;
23561;SDS011;11959;49.418;8.728;2023-09-19T10:02:16;3.08;;;1.20;;
23561;SDS011;11959;49.418;8.728;2023-09-19T10:04:53;2.60;;;1.30;;
23561;SDS011;11959;49.418;8.728;2023-09-19T10:07:39;3.90;;;1.30;;
23561;SDS011;11959;49.418;8.728;2023-09-19T10:10:07;4.85;;;1.23;;
23561;SDS011;11959;49.418;8.728;2023-09-19T10:12:48;3.35;;;1.10;;
23561;SDS011;11959;49.418;8.728;2023-09-19T10:15:21;3.45;;;1.10;;
23561;SDS011;11959;49.418;8.728;2023-09-19T10:17:49;5.05;;;1.40;;
23561;SDS011;11959;49.418;8.728;2023-09-19T10:20:23;3.60;;;1.40;;
23561;SDS011;11959;49.418;8.728;2023-09-19T10:23:09;4.13;;;1.45;;
23561;SDS011;11959;49.418;8.728;2023-09-19T10:25:40;5.13;;;1.35;;
23561;SDS011;11959;49.418;8.728;2023-09-19T10:28:08;3.08;;;1.55;;
23561;SDS011;11959;49.418;8.728;2023-09-19T10:30:38;2.92;;;1.27;;
23561;SDS011;11959;49.418;8.728;2023-09-19T10:33:09;5.20;;;1.40;;
23561;SDS011;11959;49.418;8.728;2023-09-19T10:35:37;3.03;;;1.40;;
23561;SDS011;11959;49.418;8.728;2023-09-19T10:38:05;2.78;;;1.20;;
23561;SDS011;11959;49.418;8.728;2023-09-19T10:40:32;3.60;;;1.48;;
23561;SDS011;11959;49.418;8.728;2023-09-19T10:43:04;3.00;;;1.25;;
23561;SDS011;11959;49.418;8.728;2023-09-19T10:45:31;5.28;;;1.50;;
23561;SDS011;11959;49.418;8.728;2023-09-19T10:48:01;5.53;;;1.67;;
23561;SDS011;11959;49.418;8.728;2023-09-19T10:50:31;4.22;;;1.23;;
23561;SDS011;11959;49.418;8.728;2023-09-19T10:53:00;2.17;;;1.08;;
23561;SDS011;11959;49.418;8.728;2023-09-19T10:55:30;5.03;;;1.30;;
23561;SDS011;11959;49.418;8.728;2023-09-19T10:57:58;2.88;;;1.48;;
23561;SDS011;11959;49.418;8.728;2023-09-19T11:00:25;4.35;;;1.60;;
23561;SDS011;11959;49.418;8.728;2023-09-19T11:05:36;6.85;;;1.55;;
23561;SDS011;11959;49.418;8.728;2023-09-19T11:08:09;2.35;;;1.42;;
23561;SDS011;11959;49.418;8.728;2023-09-19T11:10:46;3.95;;;1.50;;
23561;SDS011;11959;49.418;8.728;2023-09-19T11:13:23;4.50;;;1.25;;
23561;SDS011;11959;49.418;8.728;2023-09-19T11:26:42;2.75;;;1.23;;
23561;SDS011;11959;49.418;8.728;2023-09-19T11:29:29;4.20;;;1.50;;
23561;SDS011;11959;49.418;8.728;2023-09-19T11:31:56;4.43;;;1.50;;
23561;SDS011;11959;49.418;8.728;2023-09-19T11:37:03;4.72;;;1.30;;
23561;SDS011;11959;49.418;8.728;2023-09-19T11:39:36;4.30;;;1.42;;
23561;SDS011;11959;49.418;8.728;2023-09-19T11:42:49;2.88;;;1.40;;
23561;SDS011;11959;49.418;8.728;2023-09-19T11:48:20;3.88;;;1.50;;
23561;SDS011;11959;49.418;8.728;2023-09-19T11:50:50;5.00;;;1.65;;
23561;SDS011;11959;49.418;8.728;2023-09-19T11:53:17;4.07;;;1.25;;
23561;SDS011;11959;49.418;8.728;2023-09-19T11:55:45;3.53;;;1.35;;
23561;SDS011;11959;49.418;8.728;2023-09-19T11:58:17;3.67;;;1.35;;
23561;SDS011;11959;49.418;8.728;2023-09-19T12:00:45;4.10;;;1.33;;
23561;SDS011;11959;49.418;8.728;2023-09-19T12:03:12;2.70;;;1.27;;
23561;SDS011;11959;49.418;8.728;2023-09-19T12:05:44;2.72;;;1.20;;
23561;SDS011;11959;49.418;8.728;2023-09-19T12:08:11;3.67;;;1.27;;
23561;SDS011;11959;49.418;8.728;2023-09-19T12:10:48;5.15;;;1.42;;
23561;SDS011;11959;49.418;8.728;2023-09-19T12:13:19;2.72;;;1.17;;
23561;SDS011;11959;49.418;8.728;2023-09-19T12:15:46;2.65;;;1.20;;
23561;SDS011;11959;49.418;8.728;2023-09-19T12:18:28;3.08;;;1.33;;
23561;SDS011;11959;49.418;8.728;2023-09-19T12:20:55;3.55;;;1.50;;
23561;SDS011;11959;49.418;8.728;2023-09-19T12:23:22;3.05;;;1.38;;
23561;SDS011;11959;49.418;8.728;2023-09-19T12:25:48;3.03;;;1.30;;
23561;SDS011;11959;49.418;8.728;2023-09-19T12:28:18;2.90;;;1.30;;
23561;SDS011;11959;49.418;8.728;2023-09-19T12:30:43;2.65;;;1.20;;
23561;SDS011;11959;49.418;8.728;2023-09-19T12:33:19;4.00;;;1.20;;
23561;SDS011;11959;49.418;8.728;2023-09-19T12:35:46;4.03;;;1.45;;
23561;SDS011;11959;49.418;8.728;2023-09-19T12:38:27;3.42;;;1.00;;
23561;SDS011;11959;49.418;8.728;2023-09-19T12:40:57;2.00;;;0.90;;
23561;SDS011;11959;49.418;8.728;2023-09-19T12:45:58;3.75;;;1.20;;
23561;SDS011;11959;49.418;8.728;2023-09-19T12:48:25;3.33;;;1.13;;
23561;SDS011;11959;49.418;8.728;2023-09-19T12:53:28;3.17;;;1.23;;
23561;SDS011;11959;49.418;8.728;2023-09-19T12:55:58;3.28;;;1.42;;
23561;SDS011;11959;49.418;8.728;2023-09-19T12:58:24;6.15;;;1.30;;
23561;SDS011;11959;49.418;8.728;2023-09-19T13:00:50;4.70;;;1.25;;
23561;SDS011;11959;49.418;8.728;2023-09-19T13:08:34;2.67;;;1.13;;
23561;SDS011;11959;49.418;8.728;2023-09-19T13:13:41;2.97;;;1.30;;
23561;SDS011;11959;49.418;8.728;2023-09-19T13:16:19;2.95;;;1.20;;
23561;SDS011;11959;49.418;8.728;2023-09-19T13:18:50;3.13;;;1.20;;
23561;SDS011;11959;49.418;8.728;2023-09-19T13:21:34;3.25;;;1.00;;
23561;SDS011;11959;49.418;8.728;2023-09-19T13:24:23;3.60;;;1.15;;
23561;SDS011;11959;49.418;8.728;2023-09-19T13:26:55;2.75;;;1.10;;
23561;SDS011;11959;49.418;8.728;2023-09-19T13:29:21;3.03;;;1.23;;
23561;SDS011;11959;49.418;8.728;2023-09-19T13:31:48;3.55;;;1.38;;
23561;SDS011;11959;49.418;8.728;2023-09-19T13:34:15;3.55;;;1.23;;
23561;SDS011;11959;49.418;8.728;2023-09-19T13:36:42;3.13;;;1.50;;
23561;SDS011;11959;49.418;8.728;2023-09-19T13:39:08;1.95;;;1.17;;
23561;SDS011;11959;49.418;8.728;2023-09-19T13:41:34;2.92;;;1.00;;
23561;SDS011;11959;49.418;8.728;2023-09-19T13:44:03;3.30;;;1.30;;
23561;SDS011;11959;49.418;8.728;2023-09-19T13:46:30;3.30;;;1.23;;
23561;SDS011;11959;49.418;8.728;2023-09-19T13:48:58;3.70;;;1.20;;
23561;SDS011;11959;49.418;8.728;2023-09-19T13:51:25;3.88;;;1.30;;
23561;SDS011;11959;49.418;8.728;2023-09-19T13:53:51;2.40;;;1.23;;
23561;SDS011;11959;49.418;8.728;2023-09-19T13:56:17;3.90;;;1.10;;
23561;SDS011;11959;49.418;8.728;2023-09-19T13:58:42;3.05;;;1.30;;
23561;SDS011;11959;49.418;8.728;2023-09-19T14:01:08;5.00;;;1.30;;
23561;SDS011;11959;49.418;8.728;2023-09-19T14:03:41;3.70;;;1.20;;
23561;SDS011;11959;49.418;8.728;2023-09-19T14:06:12;4.68;;;1.35;;
23561;SDS011;11959;49.418;8.728;2023-09-19T14:08:38;3.50;;;1.27;;
23561;SDS011;11959;49.418;8.728;2023-09-19T14:11:07;3.00;;;1.13;;
23561;SDS011;11959;49.418;8.728;2023-09-19T14:13:33;2.53;;;0.90;;
23561;SDS011;11959;49.418;8.728;2023-09-19T14:16:05;2.22;;;0.90;;
23561;SDS011;11959;49.418;8.728;2023-09-19T14:18:33;5.22;;;1.25;;
23561;SDS011;11959;49.418;8.728;2023-09-19T14:21:06;2.42;;;1.08;;
23561;SDS011;11959;49.418;8.728;2023-09-19T14:26:06;2.70;;;1.17;;
23561;SDS011;11959;49.418;8.728;2023-09-19T14:28:32;4.68;;;1.20;;
23561;SDS011;11959;49.418;8.728;2023-09-19T14:31:07;2.88;;;1.20;;
23561;SDS011;11959;49.418;8.728;2023-09-19T14:33:34;3.00;;;1.10;;
23561;SDS011;11959;49.418;8.728;2023-09-19T14:36:07;4.70;;;1.13;;
23561;SDS011;11959;49.418;8.728;2023-09-19T14:38:36;2.70;;;1.00;;
23561;SDS011;11959;49.418;8.728;2023-09-19T14:41:03;2.50;;;1.08;;
23561;SDS011;11959;49.418;8.728;2023-09-19T14:43:30;2.75;;;1.05;;
23561;SDS011;11959;49.418;8.728;2023-09-19T14:46:02;2.38;;;1.17;;
23561;SDS011;11959;49.418;8.728;2023-09-19T14:48:28;2.38;;;1.08;;
23561;SDS011;11959;49.418;8.728;2023-09-19T14:50:54;3.25;;;1.10;;
23561;SDS011;11959;49.418;8.728;2023-09-19T14:53:20;2.70;;;1.15;;
23561;SDS011;11959;49.418;8.728;2023-09-19T14:55:46;4.45;;;1.30;;
23561;SDS011;11959;49.418;8.728;2023-09-19T14:58:13;2.92;;;1.30;;
23561;SDS011;11959;49.418;8.728;2023-09-19T15:00:38;3.13;;;1.30;;
23561;SDS011;11959;49.418;8.728;2023-09-19T15:03:06;3.53;;;1.27;;
23561;SDS011;11959;49.418;8.728;2023-09-19T15:05:32;3.67;;;1.33;;
23561;SDS011;11959;49.418;8.728;2023-09-19T15:07:59;3.80;;;0.98;;
23561;SDS011;11959;49.418;8.728;2023-09-19T15:10:24;2.72;;;1.10;;
23561;SDS011;11959;49.418;8.728;2023-09-19T15:12:50;2.50;;;1.05;;
23561;SDS011;11959;49.418;8.728;2023-09-19T15:15:16;2.53;;;1.08;;
23561;SDS011;11959;49.418;8.728;2023-09-19T15:17:41;4.03;;;1.38;;
23561;SDS011;11959;49.418;8.728;2023-09-19T15:20:07;3.25;;;1.42;;
23561;SDS011;11959;49.418;8.728;2023-09-19T15:22:33;2.47;;;0.93;;
23561;SDS011;11959;49.418;8.728;2023-09-19T15:25:03;3.15;;;1.30;;
23561;SDS011;11959;49.418;8.728;2023-09-19T15:27:29;3.90;;;1.40;;
23561;SDS011;11959;49.418;8.728;2023-09-19T15:29:56;3.22;;;1.30;;
23561;SDS011;11959;49.418;8.728;2023-09-19T15:32:23;2.22;;;1.08;;
23561;SDS011;11959;49.418;8.728;2023-09-19T15:34:49;2.92;;;1.23;;
23561;SDS011;11959;49.418;8.728;2023-09-19T15:37:15;3.15;;;1.50;;
23561;SDS011;11959;49.418;8.728;2023-09-19T15:39:41;2.53;;;1.27;;
23561;SDS011;11959;49.418;8.728;2023-09-19T15:42:07;2.60;;;1.30;;
23561;SDS011;11959;49.418;8.728;2023-09-19T15:44:33;2.47;;;1.13;;